createdAt,value
2018-12-14T00:00:22.223Z,88.04
2018-12-14T00:02:51.035Z,87.94
2018-12-14T00:05:19.834Z,87.81
2018-12-14T00:07:48.647Z,88.44
2018-12-14T00:10:17.443Z,87.95
2018-12-14T00:12:46.492Z,87.97
2018-12-14T00:15:15.295Z,88.60
2018-12-14T00:17:44.080Z,89.26
2018-12-14T00:20:12.872Z,89.07
2018-12-14T00:22:41.677Z,88.60
2018-12-14T00:25:10.470Z,88.21
2018-12-14T00:27:39.268Z,88.81
2018-12-14T00:30:08.874Z,89.52
2018-12-14T00:32:37.668Z,89.35
2018-12-14T00:35:06.595Z,89.18
2018-12-14T00:37:35.391Z,89.92
2018-12-14T00:40:04.501Z,89.77
2018-12-14T00:42:33.309Z,90.38
2018-12-14T00:45:02.102Z,89.69
2018-12-14T00:47:30.890Z,90.62
2018-12-14T00:49:59.687Z,90.81
2018-12-14T00:52:28.493Z,90.51
2018-12-14T00:54:57.306Z,91.25
2018-12-14T00:57:26.111Z,90.92
2018-12-14T00:59:54.916Z,90.35
2018-12-14T01:02:29.651Z,91.06
2018-12-14T01:04:58.503Z,91.31
2018-12-14T01:07:27.357Z,92.08
2018-12-14T01:09:56.150Z,91.67
2018-12-14T01:12:24.996Z,90.95
2018-12-14T01:14:53.801Z,91.55
2018-12-14T01:17:22.607Z,92.08
2018-12-14T01:19:51.713Z,91.41
2018-12-14T01:22:20.566Z,92.08
2018-12-14T01:24:49.376Z,91.91
2018-12-14T01:27:18.176Z,91.28
2018-12-14T01:29:47.021Z,90.96
2018-12-14T01:32:15.830Z,92.10
2018-12-14T01:34:44.714Z,91.78
2018-12-14T01:37:13.488Z,91.42
2018-12-14T01:39:42.277Z,91.78
2018-12-14T01:42:11.078Z,91.47
2018-12-14T01:44:39.976Z,91.78
2018-12-14T01:47:08.815Z,92.08
2018-12-14T01:49:37.632Z,92.40
2018-12-14T01:52:06.441Z,92.24
2018-12-14T01:54:35.224Z,92.60
2018-12-14T01:57:04.015Z,92.44
2018-12-14T01:59:33.359Z,92.88
2018-12-14T02:02:02.147Z,93.65
2018-12-14T02:04:31.268Z,92.56
2018-12-14T02:07:00.048Z,92.61
2018-12-14T02:09:28.855Z,93.09
2018-12-14T02:11:57.643Z,93.80
2018-12-14T02:14:26.457Z,92.41
2018-12-14T02:16:55.254Z,93.70
2018-12-14T02:19:24.112Z,93.56
2018-12-14T02:21:52.919Z,92.98
2018-12-14T02:24:21.735Z,92.89
2018-12-14T02:26:50.527Z,93.10
2018-12-14T02:29:19.322Z,92.83
2018-12-14T02:31:48.126Z,93.60
2018-12-14T02:34:16.927Z,93.21
2018-12-14T02:36:45.714Z,93.32
2018-12-14T02:39:14.507Z,93.29
2018-12-14T02:41:43.302Z,93.10
2018-12-14T02:44:12.104Z,93.08
2018-12-14T02:46:40.898Z,93.59
2018-12-14T02:49:09.694Z,93.36
2018-12-14T02:51:38.483Z,93.77
2018-12-14T02:54:07.273Z,93.28
2018-12-14T02:56:36.088Z,93.57
2018-12-14T02:59:04.892Z,92.68
2018-12-14T03:01:34.179Z,93.30
2018-12-14T03:04:02.992Z,93.29
2018-12-14T03:06:32.514Z,92.53
2018-12-14T03:09:01.297Z,92.66
2018-12-14T03:11:30.133Z,93.83
2018-12-14T03:13:58.971Z,92.85
2018-12-14T03:16:27.769Z,93.74
2018-12-14T03:18:56.556Z,92.99
2018-12-14T03:21:25.430Z,93.52
2018-12-14T03:23:54.234Z,93.78
2018-12-14T03:26:23.062Z,93.08
2018-12-14T03:28:51.867Z,93.06
2018-12-14T03:31:20.678Z,94.12
2018-12-14T03:33:49.454Z,94.03
2018-12-14T03:36:19.162Z,94.10
2018-12-14T03:38:47.939Z,93.19
2018-12-14T03:41:16.826Z,93.89
2018-12-14T03:43:45.544Z,94.11
2018-12-14T03:46:14.329Z,94.26
2018-12-14T03:48:43.104Z,93.11
2018-12-14T03:51:11.904Z,94.22
2018-12-14T03:53:40.743Z,93.15
2018-12-14T03:56:09.625Z,93.74
2018-12-14T03:58:38.390Z,93.93
2018-12-14T04:01:07.177Z,94.72
2018-12-14T04:03:36.683Z,93.38
2018-12-14T04:06:05.491Z,93.22
2018-12-14T04:08:34.283Z,93.58
2018-12-14T04:11:03.058Z,94.08
2018-12-14T04:13:31.916Z,94.27
2018-12-14T04:16:00.700Z,94.47
2018-12-14T04:18:29.595Z,93.64
2018-12-14T04:20:58.367Z,94.05
2018-12-14T04:23:27.177Z,93.43
2018-12-14T04:25:55.967Z,93.84
2018-12-14T04:28:24.759Z,94.72
2018-12-14T04:30:53.558Z,93.49
2018-12-14T04:33:22.455Z,95.03
2018-12-14T04:35:51.277Z,94.77
2018-12-14T04:38:20.103Z,94.50
2018-12-14T04:40:48.891Z,93.81
2018-12-14T04:43:17.742Z,94.87
2018-12-14T04:45:46.890Z,94.39
2018-12-14T04:48:15.680Z,94.43
2018-12-14T04:50:44.512Z,94.22
2018-12-14T04:53:13.298Z,94.56
2018-12-14T04:55:42.134Z,94.32
2018-12-14T04:58:10.922Z,94.31
2018-12-14T05:00:39.722Z,93.94
2018-12-14T05:03:08.499Z,94.34
2018-12-14T05:05:37.296Z,94.87
2018-12-14T05:08:06.083Z,93.92
2018-12-14T05:10:34.862Z,94.43
2018-12-14T05:13:03.980Z,94.68
2018-12-14T05:15:32.838Z,95.49
2018-12-14T05:18:01.612Z,94.47
2018-12-14T05:20:30.828Z,94.75
2018-12-14T05:22:59.714Z,95.10
2018-12-14T05:25:28.494Z,94.92
2018-12-14T05:27:57.278Z,94.75
2018-12-14T05:30:26.081Z,95.12
2018-12-14T05:32:54.956Z,94.12
2018-12-14T05:35:23.775Z,95.18
2018-12-14T05:37:52.810Z,95.18
2018-12-14T05:40:21.617Z,94.51
2018-12-14T05:42:50.420Z,94.83
2018-12-14T05:45:19.231Z,94.18
2018-12-14T05:47:48.322Z,94.40
2018-12-14T05:50:17.123Z,95.04
2018-12-14T05:52:45.907Z,94.20
2018-12-14T05:55:14.712Z,95.36
2018-12-14T05:57:43.537Z,94.99
2018-12-14T06:00:12.669Z,95.10
2018-12-14T06:02:41.494Z,95.63
2018-12-14T06:05:10.291Z,94.63
2018-12-14T06:07:39.390Z,94.83
2018-12-14T06:10:08.712Z,95.05
2018-12-14T06:12:38.734Z,95.51
2018-12-14T06:15:07.518Z,95.34
2018-12-14T06:17:36.325Z,95.56
2018-12-14T06:20:05.654Z,94.95
2018-12-14T06:22:35.063Z,94.53
2018-12-14T06:25:03.910Z,94.58
2018-12-14T06:27:33.380Z,95.30
2018-12-14T06:30:02.217Z,94.60
2018-12-14T06:32:32.351Z,94.15
2018-12-14T06:35:01.426Z,95.34
2018-12-14T06:37:30.209Z,94.43
2018-12-14T06:39:59.096Z,94.59
2018-12-14T06:42:27.940Z,95.13
2018-12-14T06:44:56.785Z,95.12
2018-12-14T06:47:25.603Z,95.25
2018-12-14T06:49:54.460Z,94.80
2018-12-14T06:52:23.290Z,95.04
2018-12-14T06:54:52.101Z,94.26
2018-12-14T06:57:20.935Z,94.14
2018-12-14T06:59:50.854Z,94.19
2018-12-14T07:02:19.997Z,95.25
2018-12-14T07:04:48.790Z,94.58
2018-12-14T07:07:17.576Z,94.65
2018-12-14T07:09:46.383Z,95.26
2018-12-14T07:12:15.223Z,94.94
2018-12-14T07:14:44.004Z,94.48
2018-12-14T07:17:12.893Z,94.13
2018-12-14T07:19:41.627Z,93.79
2018-12-14T07:22:10.435Z,94.43
2018-12-14T07:24:39.230Z,93.50
2018-12-14T07:27:08.031Z,93.91
2018-12-14T07:29:36.827Z,93.09
2018-12-14T07:32:06.820Z,93.21
2018-12-14T07:34:35.619Z,94.10
2018-12-14T07:37:04.441Z,92.73
2018-12-14T07:39:33.269Z,93.11
2018-12-14T07:42:02.319Z,92.86
2018-12-14T07:44:31.245Z,93.10
2018-12-14T07:47:00.002Z,93.28
2018-12-14T07:49:28.807Z,93.42
2018-12-14T07:51:57.599Z,93.25
2018-12-14T07:54:26.409Z,93.69
2018-12-14T07:56:55.794Z,92.74
2018-12-14T07:59:24.063Z,92.56
2018-12-14T08:01:52.984Z,93.72
2018-12-14T08:04:21.824Z,93.13
2018-12-14T08:06:50.660Z,92.82
2018-12-14T08:09:19.468Z,93.13
2018-12-14T08:11:48.299Z,93.65
2018-12-14T08:14:17.140Z,93.64
2018-12-14T08:16:45.949Z,93.07
2018-12-14T08:19:14.774Z,92.31
2018-12-14T08:21:43.584Z,93.38
2018-12-14T08:24:12.375Z,93.03
2018-12-14T08:26:41.198Z,92.29
2018-12-14T08:29:09.979Z,92.89
2018-12-14T08:31:39.319Z,91.75
2018-12-14T08:34:08.149Z,92.36
2018-12-14T08:36:36.946Z,91.54
2018-12-14T08:39:07.304Z,91.92
2018-12-14T08:41:36.124Z,91.27
2018-12-14T08:44:04.961Z,91.14
2018-12-14T08:46:33.751Z,90.80
2018-12-14T08:49:02.544Z,91.96
2018-12-14T08:51:31.357Z,91.30
2018-12-14T08:54:00.143Z,91.54
2018-12-14T08:56:28.936Z,90.61
2018-12-14T08:58:57.768Z,90.61
2018-12-14T09:01:26.566Z,91.02
2018-12-14T09:03:55.347Z,91.07
2018-12-14T09:06:24.208Z,90.49
2018-12-14T09:08:52.994Z,90.71
2018-12-14T09:11:21.811Z,90.98
2018-12-14T09:13:50.633Z,90.63
2018-12-14T09:16:19.443Z,89.13
2018-12-14T09:18:48.247Z,90.04
2018-12-14T09:21:17.484Z,90.53
2018-12-14T09:23:46.340Z,90.16
2018-12-14T09:26:15.163Z,89.70
2018-12-14T09:28:44.620Z,89.88
2018-12-14T09:31:13.440Z,89.39
2018-12-14T09:33:42.222Z,90.09
2018-12-14T09:36:11.030Z,88.64
2018-12-14T09:38:39.909Z,89.19
2018-12-14T09:41:08.757Z,88.36
2018-12-14T09:43:37.559Z,88.18
2018-12-14T09:46:06.375Z,89.06
2018-12-14T09:48:35.203Z,88.57
2018-12-14T09:51:04.356Z,88.42
2018-12-14T09:53:33.219Z,87.21
2018-12-14T09:56:02.127Z,88.22
2018-12-14T09:58:30.909Z,87.98
2018-12-14T10:00:59.780Z,88.39
2018-12-14T10:03:28.603Z,86.47
2018-12-14T10:05:57.411Z,86.29
2018-12-14T10:08:26.248Z,85.62
2018-12-14T10:10:55.858Z,85.32
2018-12-14T10:13:24.667Z,84.90
2018-12-14T10:15:53.490Z,84.49
2018-12-14T10:18:22.399Z,83.86
2018-12-14T10:20:51.179Z,84.20
2018-12-14T10:23:20.007Z,85.09
2018-12-14T10:25:49.029Z,84.26
2018-12-14T10:28:17.828Z,83.95
2018-12-14T10:30:46.672Z,83.73
2018-12-14T10:33:15.468Z,82.44
2018-12-14T10:35:44.271Z,82.20
2018-12-14T10:38:13.888Z,81.30
2018-12-14T10:40:42.693Z,81.93
2018-12-14T10:43:11.495Z,81.90
2018-12-14T10:45:40.300Z,81.64
2018-12-14T10:48:09.111Z,81.44
2018-12-14T10:50:39.753Z,81.04
2018-12-14T10:53:12.607Z,79.38
2018-12-14T10:55:41.663Z,79.04
2018-12-14T10:58:11.580Z,79.19
2018-12-14T11:00:45.854Z,80.26
2018-12-14T11:03:17.630Z,79.06
2018-12-14T11:05:46.453Z,78.64
2018-12-14T11:08:15.257Z,78.58
2018-12-14T11:10:44.039Z,78.26
2018-12-14T11:13:12.830Z,79.12
2018-12-14T11:15:41.672Z,79.44
2018-12-14T11:18:10.483Z,78.37
2018-12-14T11:20:39.286Z,79.05
2018-12-14T11:23:08.083Z,76.85
2018-12-14T11:25:37.035Z,77.48
2018-12-14T11:28:05.903Z,77.14
2018-12-14T11:30:34.706Z,77.68
2018-12-14T11:33:03.906Z,77.94
2018-12-14T11:35:33.095Z,77.52
2018-12-14T11:38:01.882Z,77.44
2018-12-14T11:40:30.713Z,76.47
2018-12-14T11:42:59.499Z,76.92
2018-12-14T11:45:28.309Z,77.94
2018-12-14T11:47:57.100Z,76.31
2018-12-14T11:50:25.943Z,76.31
2018-12-14T11:52:54.758Z,76.65
2018-12-14T11:55:23.614Z,77.09
2018-12-14T11:57:52.420Z,77.78
2018-12-14T12:00:21.223Z,77.38
2018-12-14T12:02:50.026Z,77.21
2018-12-14T12:05:18.828Z,77.07
2018-12-14T12:07:47.627Z,78.09
2018-12-14T12:10:16.449Z,78.07
2018-12-14T12:12:45.236Z,78.04
2018-12-14T12:15:14.628Z,78.36
2018-12-14T12:17:49.249Z,77.77
2018-12-14T12:20:12.232Z,78.44
2018-12-14T12:22:41.023Z,78.70
2018-12-14T12:25:09.839Z,78.34
2018-12-14T12:27:38.640Z,79.22
2018-12-14T12:30:08.459Z,78.25
2018-12-14T12:32:37.307Z,78.42
2018-12-14T12:35:06.153Z,78.79
2018-12-14T12:37:34.972Z,78.32
2018-12-14T12:40:03.819Z,78.62
2018-12-14T12:42:32.622Z,78.45
2018-12-14T12:45:01.432Z,77.89
2018-12-14T12:47:30.208Z,78.72
2018-12-14T12:49:59.011Z,78.95
2018-12-14T12:52:27.798Z,78.74
2018-12-14T12:54:56.596Z,78.58
2018-12-14T12:57:25.391Z,79.10
2018-12-14T12:59:54.170Z,78.80
2018-12-14T13:02:23.050Z,78.71
2018-12-14T13:04:51.855Z,78.50
2018-12-14T13:07:20.733Z,78.73
2018-12-14T13:09:49.536Z,78.89
2018-12-14T13:12:18.340Z,79.57
2018-12-14T13:14:47.134Z,78.18
2018-12-14T13:17:15.943Z,79.29
2018-12-14T13:19:44.770Z,79.08
2018-12-14T13:22:13.591Z,78.79
2018-12-14T13:24:42.385Z,78.57
2018-12-14T13:27:11.203Z,78.48
2018-12-14T13:29:40.031Z,77.23
2018-12-14T13:32:08.820Z,77.70
2018-12-14T13:34:37.627Z,76.72
2018-12-14T13:37:06.511Z,77.87
2018-12-14T13:39:35.334Z,77.54
2018-12-14T13:42:04.122Z,77.43
2018-12-14T13:44:33.302Z,76.66
2018-12-14T13:47:02.195Z,77.42
2018-12-14T13:49:30.914Z,77.16
2018-12-14T13:52:00.568Z,76.59
2018-12-14T13:54:29.366Z,76.41
2018-12-14T13:56:58.153Z,77.37
2018-12-14T13:59:26.943Z,77.46
2018-12-14T14:01:55.817Z,76.66
2018-12-14T14:04:24.600Z,76.21
2018-12-14T14:06:53.411Z,75.63
2018-12-14T14:09:22.208Z,76.28
2018-12-14T14:11:51.007Z,75.67
2018-12-14T14:14:19.804Z,76.32
2018-12-14T14:16:48.610Z,75.64
2018-12-14T14:19:17.423Z,76.30
2018-12-14T14:21:46.223Z,76.05
2018-12-14T14:24:15.555Z,75.97
2018-12-14T14:26:44.698Z,76.10
2018-12-14T14:29:13.130Z,76.91
2018-12-14T14:31:41.975Z,75.90
2018-12-14T14:34:10.774Z,76.51
2018-12-14T14:36:39.587Z,76.52
2018-12-14T14:39:08.428Z,75.86
2018-12-14T14:41:37.251Z,74.83
2018-12-14T14:44:06.043Z,74.78
2018-12-14T14:46:35.845Z,75.89
2018-12-14T14:49:04.698Z,74.49
2018-12-14T14:51:33.495Z,75.16
2018-12-14T14:54:02.320Z,74.50
2018-12-14T14:56:31.746Z,73.99
2018-12-14T14:59:00.566Z,74.03
2018-12-14T15:01:29.381Z,74.71
2018-12-14T15:03:58.206Z,74.79
2018-12-14T15:06:26.999Z,74.95
2018-12-14T15:08:55.782Z,75.58
2018-12-14T15:11:24.587Z,75.20
2018-12-14T15:13:53.370Z,74.07
2018-12-14T15:16:22.196Z,73.46
2018-12-14T15:18:50.987Z,74.39
2018-12-14T15:21:19.787Z,74.53
2018-12-14T15:23:49.168Z,73.51
2018-12-14T15:26:17.967Z,73.87
2018-12-14T15:28:46.766Z,73.34
2018-12-14T15:31:15.556Z,72.46
2018-12-14T15:33:44.595Z,71.83
2018-12-14T15:36:13.390Z,72.35
2018-12-14T15:38:42.272Z,72.66
2018-12-14T15:41:11.042Z,72.59
2018-12-14T15:45:13.271Z,71.58
2018-12-14T15:47:40.027Z,72.14
2018-12-14T15:50:08.844Z,72.03
2018-12-14T15:52:37.637Z,73.48
2018-12-14T15:55:06.727Z,72.32
2018-12-14T15:57:35.536Z,71.84
2018-12-14T16:00:04.552Z,71.74
2018-12-14T16:02:33.587Z,71.08
2018-12-14T16:05:02.420Z,70.37
2018-12-14T16:07:31.284Z,68.91
2018-12-14T16:10:00.108Z,69.32
2018-12-14T16:12:30.246Z,67.74
2018-12-14T16:14:59.071Z,68.77
2018-12-14T16:17:27.864Z,69.03
2018-12-14T16:19:56.681Z,68.06
2018-12-14T16:22:25.489Z,69.19
2018-12-14T16:24:54.388Z,67.53
2018-12-14T16:27:23.353Z,67.06
2018-12-14T16:29:52.249Z,66.75
2018-12-14T16:32:21.043Z,65.87
2018-12-14T16:34:49.885Z,65.48
2018-12-14T16:37:18.692Z,67.51
2018-12-14T16:39:48.496Z,67.41
2018-12-14T16:42:17.303Z,66.83
2018-12-14T16:44:46.118Z,66.68
2018-12-14T16:47:15.124Z,66.35
2018-12-14T16:49:43.924Z,65.58
2018-12-14T16:52:12.723Z,65.59
2018-12-14T16:54:41.566Z,66.49
2018-12-14T16:57:10.353Z,66.37
2018-12-14T16:59:39.363Z,66.73
2018-12-14T17:02:08.265Z,66.42
2018-12-14T17:04:37.079Z,66.90
2018-12-14T17:07:05.884Z,65.27
2018-12-14T17:09:34.728Z,65.06
2018-12-14T17:12:03.543Z,62.50
2018-12-14T17:14:32.404Z,64.16
2018-12-14T17:17:02.510Z,66.02
2018-12-14T17:19:32.506Z,65.87
2018-12-14T17:22:01.306Z,66.09
2018-12-14T17:24:31.052Z,65.77
2018-12-14T17:26:59.931Z,65.74
2018-12-14T17:29:30.803Z,67.33
2018-12-14T17:31:59.935Z,66.90
2018-12-14T17:34:28.742Z,66.97
2018-12-14T17:36:57.544Z,66.68
2018-12-14T17:39:27.246Z,66.62
2018-12-14T17:41:56.032Z,66.87
2018-12-14T17:44:24.820Z,66.81
2018-12-14T17:46:53.607Z,65.06
2018-12-14T17:49:22.593Z,64.91
2018-12-14T17:51:51.523Z,65.39
2018-12-14T17:54:20.403Z,64.57
2018-12-14T17:56:49.784Z,65.75
2018-12-14T17:59:19.298Z,64.92
2018-12-14T18:01:48.995Z,65.41
2018-12-14T18:04:18.115Z,65.69
2018-12-14T18:06:47.008Z,64.94
2018-12-14T18:09:17.119Z,65.04
2018-12-14T18:11:45.940Z,65.21
2018-12-14T18:14:14.804Z,65.31
2018-12-14T18:16:43.584Z,66.01
2018-12-14T18:19:12.663Z,65.55
2018-12-14T18:21:41.403Z,66.68
2018-12-14T18:24:10.211Z,65.91
2018-12-14T18:26:39.074Z,65.67
2018-12-14T18:29:07.859Z,66.10
2018-12-14T18:31:36.681Z,66.00
2018-12-14T18:34:05.551Z,65.71
2018-12-14T18:36:34.371Z,65.63
2018-12-14T18:39:03.211Z,66.33
2018-12-14T18:41:32.867Z,65.20
2018-12-14T18:44:01.935Z,65.56
2018-12-14T18:46:31.198Z,65.80
2018-12-14T18:48:59.994Z,66.02
2018-12-14T18:51:28.822Z,65.31
2018-12-14T18:53:59.881Z,65.58
2018-12-14T18:56:29.713Z,65.92
2018-12-14T18:58:59.744Z,66.39
2018-12-14T19:01:28.526Z,65.75
2018-12-14T19:03:57.452Z,66.16
2018-12-14T19:06:26.235Z,65.92
2018-12-14T19:08:55.028Z,66.68
2018-12-14T19:11:23.828Z,66.65
2018-12-14T19:13:52.625Z,66.38
2018-12-14T19:16:21.419Z,67.52
2018-12-14T19:18:50.212Z,66.98
2018-12-14T19:21:18.991Z,67.28
2018-12-14T19:23:47.800Z,68.00
2018-12-14T19:26:16.598Z,67.51
2018-12-14T19:28:46.539Z,67.81
2018-12-14T19:31:15.347Z,68.47
2018-12-14T19:33:44.167Z,68.27
2018-12-14T19:36:12.984Z,68.26
2018-12-14T19:38:41.791Z,67.71
2018-12-14T19:41:11.323Z,68.09
2018-12-14T19:43:41.325Z,68.68
2018-12-14T19:46:10.154Z,68.33
2018-12-14T19:48:39.041Z,68.90
2018-12-14T19:51:07.831Z,68.50
2018-12-14T19:53:36.611Z,69.18
2018-12-14T19:56:05.404Z,68.47
2018-12-14T19:58:34.296Z,68.97
2018-12-14T20:01:03.108Z,69.26
2018-12-14T20:03:32.655Z,69.76
2018-12-14T20:06:01.459Z,69.18
2018-12-14T20:08:30.600Z,70.12
2018-12-14T20:10:59.780Z,69.32
2018-12-14T20:13:28.972Z,70.10
2018-12-14T20:15:57.956Z,70.55
2018-12-14T20:18:26.755Z,70.19
2018-12-14T20:20:55.548Z,70.56
2018-12-14T20:23:24.488Z,70.81
2018-12-14T20:25:53.670Z,70.75
2018-12-14T20:28:22.587Z,70.74
2018-12-14T20:30:51.386Z,70.41
2018-12-14T20:33:20.182Z,70.86
2018-12-14T20:35:48.991Z,70.59
2018-12-14T20:38:17.815Z,71.03
2018-12-14T20:40:46.615Z,71.57
2018-12-14T20:43:15.414Z,71.62
2018-12-14T20:45:44.211Z,71.26
2018-12-14T20:48:13.700Z,72.44
2018-12-14T20:50:42.496Z,73.06
2018-12-14T20:53:11.318Z,72.07
2018-12-14T20:55:40.446Z,72.50
2018-12-14T20:58:09.296Z,72.90
2018-12-14T21:00:38.245Z,72.57
2018-12-14T21:03:10.630Z,73.36
2018-12-14T21:05:39.426Z,73.63
2018-12-14T21:08:08.216Z,73.38
2018-12-14T21:10:37.064Z,74.22
2018-12-14T21:13:05.884Z,73.45
2018-12-14T21:15:34.742Z,73.79
2018-12-14T21:18:03.541Z,73.88
2018-12-14T21:20:32.332Z,74.25
2018-12-14T21:23:01.127Z,74.61
2018-12-14T21:25:30.011Z,74.53
2018-12-14T21:27:58.796Z,75.38
2018-12-14T21:30:27.584Z,74.80
2018-12-14T21:32:56.375Z,74.56
2018-12-14T21:35:25.160Z,74.56
2018-12-14T21:37:53.956Z,75.03
2018-12-14T21:40:22.796Z,75.37
2018-12-14T21:42:51.620Z,74.82
2018-12-14T21:45:20.413Z,75.78
2018-12-14T21:47:50.098Z,75.03
2018-12-14T21:50:19.601Z,74.93
2018-12-14T21:52:48.446Z,74.27
2018-12-14T21:55:18.242Z,75.24
2018-12-14T21:57:47.943Z,75.37
2018-12-14T22:00:16.806Z,74.66
2018-12-14T22:02:45.623Z,74.31
2018-12-14T22:05:14.508Z,74.11
2018-12-14T22:07:43.339Z,74.58
2018-12-14T22:10:13.004Z,74.66
2018-12-14T22:12:41.803Z,74.25
2018-12-14T22:15:10.992Z,73.94
2018-12-14T22:17:39.778Z,74.51
2018-12-14T22:20:08.575Z,74.13
2018-12-14T22:22:37.691Z,74.34
2018-12-14T22:25:06.519Z,73.30
2018-12-14T22:27:35.327Z,73.90
2018-12-14T22:30:04.171Z,73.31
2018-12-14T22:32:34.315Z,72.91
2018-12-14T22:35:03.866Z,73.53
2018-12-14T22:37:33.271Z,74.35
2018-12-14T22:40:02.118Z,73.72
2018-12-14T22:42:32.598Z,73.79
2018-12-14T22:45:01.398Z,74.22
2018-12-14T22:47:30.264Z,73.56
2018-12-14T22:49:59.153Z,74.30
2018-12-14T22:52:28.096Z,74.85
2018-12-14T22:54:57.546Z,74.70
2018-12-14T22:57:26.338Z,74.14
2018-12-14T22:59:55.354Z,74.38
2018-12-14T23:02:24.202Z,74.22
2018-12-14T23:04:53.110Z,73.73
2018-12-14T23:07:21.991Z,74.46
2018-12-14T23:09:50.875Z,74.58
2018-12-14T23:12:19.664Z,74.47
2018-12-14T23:14:48.471Z,74.00
2018-12-14T23:17:17.342Z,74.32
2018-12-14T23:19:46.139Z,73.86
2018-12-14T23:22:15.532Z,74.68
2018-12-14T23:24:44.347Z,74.80
2018-12-14T23:27:13.148Z,74.11
2018-12-14T23:29:42.278Z,74.28
2018-12-14T23:32:11.115Z,75.06
2018-12-14T23:34:39.915Z,74.35
2018-12-14T23:37:13.840Z,74.13
2018-12-14T23:39:37.537Z,74.39
2018-12-14T23:42:06.671Z,74.96
2018-12-14T23:44:35.466Z,74.96
2018-12-14T23:47:04.281Z,74.91
2018-12-14T23:49:33.717Z,74.41
2018-12-14T23:52:02.535Z,74.74
2018-12-14T23:54:31.939Z,75.35
2018-12-14T23:57:00.745Z,75.24
2018-12-14T23:59:29.558Z,75.11
